Terminal Aerodrome Forecast
Issued by NWS Boston, MA

Home | Current Version | Previous Version | Text Only | Print | Product List | Glossary On
Versions: 1 2 3 4 5 6 7 8 9 10 11 12 13 14 15 16 17 18 19 20 21 22 23 24
000
FTUS41 KBOX 130026 AAA
TAFBOS
TAF AMD
KBOS 130026Z 1300/1406 27012G22KT 6SM BR VCSH OVC015
      TEMPO 1300/1301 3SM RA OVC008
     FM130300 26012G22KT P6SM OVC070
     FM131200 27014G27KT P6SM SCT090
     FM131600 27017G30KT P6SM BKN050
     FM132300 27018G36KT P6SM FEW150=

USA.gov is the U.S. government's official web portal to all federal, state and local government web resources and services.